OOCL Oakland — 3EKJ6 — position and weather

sailwx.info

Track history (hours):
 
Tides and Currents Weather Stations Pressure Air Temp Water Temp Dewpoint Dewpoint Depression Visibility Wind Speed Wind Dir Waves Ship Positions

OOCL Oakland

Last reported at 2015-Jul-02 12:33 UTC. Time now 2015-Jul-02 12:37 UTC.
Position N 31°10' E 122°46'.

Length 280 m; draft 11.6 m.

Type: Ship. MMSI: 372703235.

Date/timePositionNaut miles runAvg speedWind from/ knotsBaromVisibWave heightAir tempDewpointWater temp
2015-Jul-02 12:33N 31°10' E 122°46'2 0.8
2015-Jul-02 09:23N 31°10' E 122°49'0 0.0
2015-Jul-02 07:22N 31°10' E 122°49'0 0.1
2015-Jul-02 04:31N 31°11' E 122°49'0 0.2
2015-Jul-02 03:31N 31°11' E 122°48'0 0.1
2015-Jul-02 02:31N 31°11' E 122°48'0 0.1
2015-Jul-02 01:31N 31°11' E 122°48'0 0.0
2015-Jul-02 00:31N 31°11' E 122°48'0 0.0
2015-Jul-01 22:28N 31°11' E 122°48'0 0.2
2015-Jul-01 21:28N 31°11' E 122°48'0 0.1
2015-Jul-01 20:31N 31°10' E 122°48'0 0.0
2015-Jul-01 19:28N 31°10' E 122°48'0 0.1
2015-Jul-01 18:31N 31°11' E 122°48'0 0.2
2015-Jul-01 17:25N 31°11' E 122°48'0 0.1
2015-Jul-01 15:31N 31°11' E 122°48'0 0.0
2015-Jul-01 14:33N 31°11' E 122°48'6 6.4
2015-Jul-01 13:33N 31°07' E 122°54'1313.2
2015-Jul-01 12:32N 30°56' E 123°04'1312.7
2015-Jul-01 11:28N 30°46' E 123°14'1112.0
2015-Jul-01 10:33N 30°35' E 123°12'1711.8
2015-Jul-01 09:07N 30°18' E 123°09'34712.4
2015-Jun-30 05:13N 25°13' E 120°03'1314.6
2015-Jun-30 04:20N 25°04' E 119°52'1214.1
2015-Jun-30 03:28N 24°55' E 119°43'8014.9
2015-Jun-29 22:06N 23°60' E 118°40'914.0
2015-Jun-29 21:27N 23°53' E 118°33'1314.1
2015-Jun-29 20:33N 23°45' E 118°23'1613.5
2015-Jun-29 19:23N 23°34' E 118°10'22612.7
2015-Jun-29 01:32N 22°08' E 114°24'1212.4
2015-Jun-29 00:33N 22°11' E 114°11'9 9.1
2015-Jun-28 23:33N 22°19' E 114°07'1 0.5
2015-Jun-28 22:31N 22°20' E 114°08'0 0.0
2015-Jun-28 21:28N 22°20' E 114°08'0 0.0
2015-Jun-28 20:31N 22°20' E 114°08'0 0.0
2015-Jun-28 19:28N 22°20' E 114°08'0 0.0
2015-Jun-28 18:28N 22°20' E 114°08'0 0.0
2015-Jun-28 17:31N 22°20' E 114°08'0 0.0
2015-Jun-28 16:31N 22°20' E 114°08'0 0.0
2015-Jun-28 15:31N 22°20' E 114°08'0 0.0
2015-Jun-28 14:28N 22°20' E 114°08'0 0.0
2015-Jun-28 13:25N 22°20' E 114°08'0 0.0
2015-Jun-28 12:28N 22°20' E 114°08'0 0.0
2015-Jun-28 11:33N 22°20' E 114°08'7 7.1
2015-Jun-28 10:33N 22°13' E 114°10'8 7.1
2015-Jun-28 09:25N 22°08' E 114°18'910.3
2015-Jun-28 08:33N 22°08' E 114°27'30413.1
2015-Jun-27 09:18N 22°31' E 119°55'1013.5
2015-Jun-27 08:33N 22°32' E 120°05'1212.5
2015-Jun-27 07:33N 22°33' E 120°19'1 1.1
2015-Jun-27 06:30N 22°34' E 120°19'0 0.0
2015-Jun-27 05:30N 22°34' E 120°19'0 0.0
2015-Jun-27 04:30N 22°34' E 120°19'0 0.0
2015-Jun-27 03:30N 22°34' E 120°19'0 0.0
2015-Jun-27 02:12N 22°34' E 120°19'0 0.0
2015-Jun-27 01:30N 22°34' E 120°19'0 0.0
2015-Jun-26 23:30N 22°34' E 120°19'0 0.0
2015-Jun-26 22:30N 22°34' E 120°19'0 0.2
2015-Jun-26 21:33N 22°34' E 120°19'3 3.4
2015-Jun-26 20:33N 22°32' E 120°16'8 7.5
2015-Jun-26 19:33N 22°26' E 120°11'9 8.6
2015-Jun-26 18:33N 22°17' E 120°10'  
Track history (hours):
 
Tides and Currents Weather Stations Pressure Air Temp Water Temp Dewpoint Dewpoint Depression Visibility Wind Speed Wind Dir Waves Ship Positions

OOCL Oakland

Last reported at 2015-Jul-02 12:33 UTC. Time now 2015-Jul-02 12:37 UTC.
Position N 31°10' E 122°46'.

Length 280 m; draft 11.6 m.

Type: Ship. MMSI: 372703235.

Date/timePositionNaut miles runAvg speedWind from/ knotsBaromVisibWave heightAir tempDewpointWater temp
2015-Jul-02 12:33N 31°10' E 122°46'2 0.8
2015-Jul-02 09:23N 31°10' E 122°49'0 0.0
2015-Jul-02 07:22N 31°10' E 122°49'0 0.1
2015-Jul-02 04:31N 31°11' E 122°49'0 0.2
2015-Jul-02 03:31N 31°11' E 122°48'0 0.1
2015-Jul-02 02:31N 31°11' E 122°48'0 0.1
2015-Jul-02 01:31N 31°11' E 122°48'0 0.0
2015-Jul-02 00:31N 31°11' E 122°48'0 0.0
2015-Jul-01 22:28N 31°11' E 122°48'0 0.2
2015-Jul-01 21:28N 31°11' E 122°48'0 0.1
2015-Jul-01 20:31N 31°10' E 122°48'0 0.0
2015-Jul-01 19:28N 31°10' E 122°48'0 0.1
2015-Jul-01 18:31N 31°11' E 122°48'0 0.2
2015-Jul-01 17:25N 31°11' E 122°48'0 0.1
2015-Jul-01 15:31N 31°11' E 122°48'0 0.0
2015-Jul-01 14:33N 31°11' E 122°48'6 6.4
2015-Jul-01 13:33N 31°07' E 122°54'1313.2
2015-Jul-01 12:32N 30°56' E 123°04'1312.7
2015-Jul-01 11:28N 30°46' E 123°14'1112.0
2015-Jul-01 10:33N 30°35' E 123°12'1711.8
2015-Jul-01 09:07N 30°18' E 123°09'34712.4
2015-Jun-30 05:13N 25°13' E 120°03'1314.6
2015-Jun-30 04:20N 25°04' E 119°52'1214.1
2015-Jun-30 03:28N 24°55' E 119°43'8014.9
2015-Jun-29 22:06N 23°60' E 118°40'914.0
2015-Jun-29 21:27N 23°53' E 118°33'1314.1
2015-Jun-29 20:33N 23°45' E 118°23'1613.5
2015-Jun-29 19:23N 23°34' E 118°10'22612.7
2015-Jun-29 01:32N 22°08' E 114°24'1212.4
2015-Jun-29 00:33N 22°11' E 114°11'9 9.1
2015-Jun-28 23:33N 22°19' E 114°07'1 0.5
2015-Jun-28 22:31N 22°20' E 114°08'0 0.0
2015-Jun-28 21:28N 22°20' E 114°08'0 0.0
2015-Jun-28 20:31N 22°20' E 114°08'0 0.0
2015-Jun-28 19:28N 22°20' E 114°08'0 0.0
2015-Jun-28 18:28N 22°20' E 114°08'0 0.0
2015-Jun-28 17:31N 22°20' E 114°08'0 0.0
2015-Jun-28 16:31N 22°20' E 114°08'0 0.0
2015-Jun-28 15:31N 22°20' E 114°08'0 0.0
2015-Jun-28 14:28N 22°20' E 114°08'0 0.0
2015-Jun-28 13:25N 22°20' E 114°08'0 0.0
2015-Jun-28 12:28N 22°20' E 114°08'0 0.0
2015-Jun-28 11:33N 22°20' E 114°08'7 7.1
2015-Jun-28 10:33N 22°13' E 114°10'8 7.1
2015-Jun-28 09:25N 22°08' E 114°18'910.3
2015-Jun-28 08:33N 22°08' E 114°27'30413.1
2015-Jun-27 09:18N 22°31' E 119°55'1013.5
2015-Jun-27 08:33N 22°32' E 120°05'1212.5
2015-Jun-27 07:33N 22°33' E 120°19'1 1.1
2015-Jun-27 06:30N 22°34' E 120°19'0 0.0
2015-Jun-27 05:30N 22°34' E 120°19'0 0.0
2015-Jun-27 04:30N 22°34' E 120°19'0 0.0
2015-Jun-27 03:30N 22°34' E 120°19'0 0.0
2015-Jun-27 02:12N 22°34' E 120°19'0 0.0
2015-Jun-27 01:30N 22°34' E 120°19'0 0.0
2015-Jun-26 23:30N 22°34' E 120°19'0 0.0
2015-Jun-26 22:30N 22°34' E 120°19'0 0.2
2015-Jun-26 21:33N 22°34' E 120°19'3 3.4
2015-Jun-26 20:33N 22°32' E 120°16'8 7.5
2015-Jun-26 19:33N 22°26' E 120°11'9 8.6
2015-Jun-26 18:33N 22°17' E 120°10'  

Dump ship's entire track history